createdAt,value
2023-02-26T00:00:21.335Z,-23162.63
2023-02-26T00:02:24.059Z,-23166.16
2023-02-26T00:04:28.310Z,-23159.28
2023-02-26T00:06:33.592Z,-23157.03
2023-02-26T00:08:36.506Z,-23154.16
2023-02-26T00:10:39.073Z,-23152.09
2023-02-26T00:12:42.258Z,-23165.03
2023-02-26T00:14:45.585Z,-23159.28
2023-02-26T00:16:54.558Z,-23157.34
2023-02-26T00:18:58.936Z,-23155.13
2023-02-26T00:21:03.688Z,-23155.59
2023-02-26T00:23:06.972Z,-23152.25
2023-02-26T00:25:10.782Z,-23152.25
2023-02-26T00:27:13.758Z,-23150.31
2023-02-26T00:29:17.026Z,-23154.47
2023-02-26T00:31:24.541Z,-23149.38
2023-02-26T00:33:27.943Z,-23151.28
2023-02-26T00:35:31.168Z,-23151.13
2023-02-26T00:37:51.399Z,-23155.75
2023-02-26T00:40:06.337Z,-23152.25
2023-02-26T00:42:09.849Z,-23151.91
2023-02-26T00:44:13.125Z,-23143.59
2023-02-26T00:46:25.325Z,-23153.53
2023-02-26T00:48:47.002Z,-23140.91
2023-02-26T00:50:57.924Z,-23143.94
2023-02-26T00:53:11.392Z,-23145.53
2023-02-26T00:55:14.154Z,-23149.69
2023-02-26T00:57:16.772Z,-23145.22
2023-02-26T00:59:20.505Z,-23138.34
2023-02-26T01:01:23.142Z,-23140.25
2023-02-26T01:03:26.446Z,-23143.78
2023-02-26T01:05:29.736Z,-23143.59
2023-02-26T01:07:41.457Z,-23145.53
2023-02-26T01:09:46.151Z,-23149.84
2023-02-26T01:11:50.006Z,-23147.13
2023-02-26T01:13:53.211Z,-23151.59
2023-02-26T01:16:03.681Z,-23147.59
2023-02-26T01:18:12.751Z,-23147.13
2023-02-26T01:20:19.568Z,-23148.72
2023-02-26T01:22:30.094Z,-23138.81
2023-02-26T01:24:35.005Z,-23139.44
2023-02-26T01:26:39.417Z,-23140.09
2023-02-26T01:28:42.415Z,-23140.72
2023-02-26T01:30:46.265Z,-23138.97
2023-02-26T01:32:53.341Z,-23135.94
2023-02-26T01:35:00.955Z,-23136.41
2023-02-26T01:37:14.792Z,-23136.25
2023-02-26T01:39:26.855Z,-23128.91
2023-02-26T01:41:32.326Z,-23131.13
2023-02-26T01:43:45.330Z,-23126.50
2023-02-26T01:45:55.581Z,-23126.34
2023-02-26T01:48:04.613Z,-23124.56
2023-02-26T01:50:14.082Z,-23126.97
2023-02-26T01:53:05.264Z,-23121.38
2023-02-26T01:55:08.034Z,-23121.38
2023-02-26T01:57:15.290Z,-23120.91
2023-02-26T01:59:24.423Z,-23121.22
2023-02-26T02:01:27.324Z,-23118.81
2023-02-26T02:03:33.110Z,-23126.03
2023-02-26T02:05:42.714Z,-23122.03
2023-02-26T02:07:45.314Z,-23114.50
2023-02-26T02:09:48.347Z,-23117.53
2023-02-26T02:12:06.214Z,-23112.44
2023-02-26T02:14:14.893Z,-23113.88
2023-02-26T02:16:29.027Z,-23115.47
2023-02-26T02:18:43.104Z,-23114.50
2023-02-26T02:21:22.910Z,-23114.50
2023-02-26T02:23:34.186Z,-23117.69
2023-02-26T02:26:01.904Z,-23110.97
2023-02-26T02:28:14.179Z,-23110.97
2023-02-26T02:30:30.650Z,-23110.97
2023-02-26T02:32:39.835Z,-23111.47
2023-02-26T02:34:48.299Z,-23116.09
2023-02-26T02:36:58.226Z,-23111.94
2023-02-26T02:39:04.314Z,-23110.81
2023-02-26T02:41:10.558Z,-23109.69
2023-02-26T02:43:16.316Z,-23110.66
2023-02-26T02:45:25.107Z,-23112.44
2023-02-26T02:47:29.862Z,-23112.44
2023-02-26T02:49:38.578Z,-23110.66
2023-02-26T02:51:46.224Z,-23109.69
2023-02-26T02:53:52.168Z,-23110.03
2023-02-26T02:55:59.403Z,-23108.41
2023-02-26T02:58:05.888Z,-23106.81
2023-02-26T03:00:12.938Z,-23109.22
2023-02-26T03:02:20.693Z,-23106.34
2023-02-26T03:04:23.502Z,-23104.41
2023-02-26T03:06:27.636Z,-23106.81
2023-02-26T03:08:35.943Z,-23105.88
2023-02-26T03:10:38.780Z,-23106.81
2023-02-26T03:12:41.430Z,-23105.69
2023-02-26T03:14:44.552Z,-23107.13
2023-02-26T03:17:01.493Z,-23102.34
2023-02-26T03:19:16.733Z,-23104.75
2023-02-26T03:21:28.150Z,-23104.91
2023-02-26T03:23:36.536Z,-23103.94
2023-02-26T03:25:46.564Z,-23105.22
2023-02-26T03:27:56.082Z,-23103.63
2023-02-26T03:30:03.563Z,-23102.34
2023-02-26T03:32:12.110Z,-23100.75
2023-02-26T03:34:20.676Z,-23101.69
2023-02-26T03:36:30.453Z,-23100.09
2023-02-26T03:38:40.214Z,-23102.66
2023-02-26T03:40:47.045Z,-23100.09
2023-02-26T03:42:54.874Z,-23104.91
2023-02-26T03:45:00.924Z,-23101.06
2023-02-26T03:47:11.621Z,-23104.59
2023-02-26T03:49:21.614Z,-23096.91
2023-02-26T03:51:27.645Z,-23099.16
2023-02-26T03:53:37.698Z,-23097.69
2023-02-26T03:55:45.641Z,-23102.03
2023-02-26T03:57:49.670Z,-23101.38
2023-02-26T03:59:52.390Z,-23097.06
2023-02-26T04:02:00.464Z,-23095.47
2023-02-26T04:04:06.742Z,-23095.31
2023-02-26T04:06:10.061Z,-23094.97
2023-02-26T04:08:12.772Z,-23093.06
2023-02-26T04:10:21.525Z,-23090.81
2023-02-26T04:12:25.626Z,-23091.78
2023-02-26T04:14:28.266Z,-23091.63
2023-02-26T04:16:31.242Z,-23090.34
2023-02-26T04:18:34.027Z,-23089.84
2023-02-26T04:20:36.739Z,-23086.34
2023-02-26T04:22:39.726Z,-23086.34
2023-02-26T04:24:42.472Z,-23086.34
2023-02-26T04:26:46.478Z,-23085.69
2023-02-26T04:28:49.050Z,-23086.50
2023-02-26T04:30:51.801Z,-23088.09
2023-02-26T04:32:54.533Z,-23091.31
2023-02-26T04:34:57.278Z,-23086.81
2023-02-26T04:36:59.962Z,-23087.13
2023-02-26T04:39:02.724Z,-23088.09
2023-02-26T04:41:05.565Z,-23087.94
2023-02-26T04:43:09.604Z,-23087.31
2023-02-26T04:45:12.210Z,-23087.78
2023-02-26T04:47:15.060Z,-23085.38
2023-02-26T04:49:17.929Z,-23084.56
2023-02-26T04:51:20.574Z,-23084.72
2023-02-26T04:53:23.201Z,-23083.63
2023-02-26T04:55:25.947Z,-23086.00
2023-02-26T04:57:28.631Z,-23089.22
2023-02-26T04:59:32.648Z,-23085.53
2023-02-26T05:01:35.897Z,-23082.81
2023-02-26T05:03:38.539Z,-23085.06
2023-02-26T05:05:41.133Z,-23087.63
2023-02-26T05:07:43.823Z,-23086.81
2023-02-26T05:09:46.756Z,-23087.78
2023-02-26T05:11:49.522Z,-23086.66
2023-02-26T05:13:52.159Z,-23085.38
2023-02-26T05:15:56.224Z,-23084.41
2023-02-26T05:17:58.882Z,-23084.41
2023-02-26T05:20:01.496Z,-23081.22
2023-02-26T05:22:04.111Z,-23080.72
2023-02-26T05:24:07.261Z,-23083.13
2023-02-26T05:26:09.845Z,-23085.38
2023-02-26T05:28:12.543Z,-23079.44
2023-02-26T05:30:17.062Z,-23085.06
2023-02-26T05:32:21.011Z,-23083.78
2023-02-26T05:34:23.587Z,-23085.84
2023-02-26T05:36:26.640Z,-23084.41
2023-02-26T05:38:29.461Z,-23081.06
2023-02-26T05:40:32.136Z,-23081.53
2023-02-26T05:42:34.770Z,-23081.69
2023-02-26T05:44:37.490Z,-23085.06
2023-02-26T05:46:40.218Z,-23078.66
2023-02-26T05:48:45.896Z,-23078.66
2023-02-26T05:50:51.415Z,-23082.97
2023-02-26T05:52:54.490Z,-23083.63
2023-02-26T05:54:57.142Z,-23074.50
2023-02-26T05:57:00.105Z,-23072.56
2023-02-26T05:59:03.833Z,-23070.16
2023-02-26T06:01:06.857Z,-23070.31
2023-02-26T06:03:09.538Z,-23070.81
2023-02-26T06:05:13.585Z,-23075.44
2023-02-26T06:07:16.217Z,-23073.22
2023-02-26T06:09:18.987Z,-23073.53
2023-02-26T06:11:22.034Z,-23072.09
2023-02-26T06:13:24.686Z,-23073.53
2023-02-26T06:15:27.294Z,-23074.50
2023-02-26T06:17:29.973Z,-23070.97
2023-02-26T06:19:32.722Z,-23068.88
2023-02-26T06:21:36.680Z,-23075.13
2023-02-26T06:23:39.406Z,-23077.22
2023-02-26T06:25:42.380Z,-23076.72
2023-02-26T06:27:45.237Z,-23074.50
2023-02-26T06:29:48.109Z,-23074.81
2023-02-26T06:31:51.138Z,-23073.38
2023-02-26T06:33:54.077Z,-23070.97
2023-02-26T06:35:57.967Z,-23073.84
2023-02-26T06:38:02.034Z,-23076.72
2023-02-26T06:40:05.646Z,-23077.38
2023-02-26T06:42:08.312Z,-23078.81
2023-02-26T06:44:11.625Z,-23081.84
2023-02-26T06:46:14.690Z,-23082.34
2023-02-26T06:48:17.591Z,-23090.50
2023-02-26T06:50:20.346Z,-23087.31
2023-02-26T06:52:23.045Z,-23078.00
2023-02-26T06:54:27.101Z,-23077.69
2023-02-26T06:56:30.058Z,-23080.09
2023-02-26T06:58:32.899Z,-23087.63
2023-02-26T07:00:36.189Z,-23082.19
2023-02-26T07:02:38.797Z,-23077.06
2023-02-26T07:04:41.528Z,-23081.38
2023-02-26T07:06:44.251Z,-23083.13
2023-02-26T07:08:47.036Z,-23082.50
2023-02-26T07:10:51.077Z,-23083.28
2023-02-26T07:12:53.692Z,-23088.75
2023-02-26T07:14:56.312Z,-23090.81
2023-02-26T07:16:59.004Z,-23086.66
2023-02-26T07:19:01.637Z,-23088.91
2023-02-26T07:21:05.046Z,-23089.69
2023-02-26T07:23:07.712Z,-23088.91
2023-02-26T07:25:11.103Z,-23092.09
2023-02-26T07:27:15.029Z,-23100.59
2023-02-26T07:29:17.668Z,-23095.63
2023-02-26T07:31:20.373Z,-23104.91
2023-02-26T07:33:23.347Z,-23099.16
2023-02-26T07:35:26.220Z,-23109.06
2023-02-26T07:37:29.540Z,-23103.94
2023-02-26T07:39:32.186Z,-23097.22
2023-02-26T07:41:34.825Z,-23094.97
2023-02-26T07:43:38.935Z,-23099.16
2023-02-26T07:45:41.783Z,-23109.06
2023-02-26T07:47:44.397Z,-23107.13
2023-02-26T07:49:47.110Z,-23111.63
2023-02-26T07:51:50.162Z,-23100.25
2023-02-26T07:53:53.011Z,-23103.31
2023-02-26T07:55:55.899Z,-23099.47
2023-02-26T07:57:58.624Z,-23101.22
2023-02-26T08:00:02.740Z,-23104.09
2023-02-26T08:02:05.836Z,-23120.59
2023-02-26T08:04:08.594Z,-23125.22
2023-02-26T08:06:11.248Z,-23123.78
2023-02-26T08:08:14.247Z,-23110.97
2023-02-26T08:10:16.936Z,-23113.22
2023-02-26T08:12:19.625Z,-23114.97
2023-02-26T08:14:22.290Z,-23114.34
2023-02-26T08:16:26.713Z,-23134.34
2023-02-26T08:18:29.585Z,-23139.13
2023-02-26T08:20:32.270Z,-23142.66
2023-02-26T08:22:34.977Z,-23126.34
2023-02-26T08:24:37.631Z,-23131.78
2023-02-26T08:26:40.521Z,-23128.09
2023-02-26T08:28:43.188Z,-23130.81
2023-02-26T08:30:45.842Z,-23117.38
2023-02-26T08:32:49.846Z,-23117.53
2023-02-26T08:34:52.486Z,-23120.41
2023-02-26T08:36:55.166Z,-23119.78
2023-02-26T08:38:58.326Z,-23134.66
2023-02-26T08:41:01.323Z,-23135.28
2023-02-26T08:43:04.505Z,-23129.69
2023-02-26T08:45:08.295Z,-23118.19
2023-02-26T08:47:11.617Z,-23112.91
2023-02-26T08:49:15.643Z,-23118.19
2023-02-26T08:51:18.981Z,-23114.81
2023-02-26T08:53:21.640Z,-23114.81
2023-02-26T08:55:24.442Z,-23120.91
2023-02-26T08:57:28.242Z,-23111.47
2023-02-26T08:59:30.840Z,-23111.31
2023-02-26T09:01:33.867Z,-23110.03
2023-02-26T09:03:36.704Z,-23115.31
2023-02-26T09:05:40.954Z,-23112.56
2023-02-26T09:07:44.019Z,-23119.63
2023-02-26T09:09:46.860Z,-23113.38
2023-02-26T09:11:49.604Z,-23118.66
2023-02-26T09:13:52.868Z,-23120.09
2023-02-26T09:15:55.553Z,-23115.31
2023-02-26T09:17:58.200Z,-23112.56
2023-02-26T09:20:01.086Z,-23117.53
2023-02-26T09:22:06.466Z,-23115.78
2023-02-26T09:24:09.942Z,-23119.31
2023-02-26T09:26:12.782Z,-23116.59
2023-02-26T09:28:15.506Z,-23115.78
2023-02-26T09:30:18.296Z,-23122.66
2023-02-26T09:32:21.159Z,-23125.84
2023-02-26T09:34:23.959Z,-23123.13
2023-02-26T09:36:27.441Z,-23120.59
2023-02-26T09:38:31.811Z,-23124.56
2023-02-26T09:40:43.761Z,-23125.53
2023-02-26T09:43:02.241Z,-23126.66
2023-02-26T09:45:07.173Z,-23126.97
2023-02-26T09:47:17.140Z,-23123.47
2023-02-26T09:49:28.395Z,-23130.00
2023-02-26T09:51:34.993Z,-23124.09
2023-02-26T09:53:42.100Z,-23127.63
2023-02-26T09:55:46.724Z,-23129.38
2023-02-26T09:57:52.723Z,-23124.56
2023-02-26T09:59:55.631Z,-23138.81
2023-02-26T10:02:03.404Z,-23136.56
2023-02-26T10:04:15.752Z,-23138.19
2023-02-26T10:06:25.323Z,-23127.28
2023-02-26T10:08:39.700Z,-23123.94
2023-02-26T10:10:50.553Z,-23122.50
2023-02-26T10:12:54.104Z,-23123.78
2023-02-26T10:15:01.393Z,-23131.47
2023-02-26T10:17:15.401Z,-23127.63
2023-02-26T10:19:20.736Z,-23127.28
2023-02-26T10:21:27.593Z,-23127.63
2023-02-26T10:23:35.861Z,-23135.28
2023-02-26T10:25:41.160Z,-23133.69
2023-02-26T10:27:56.778Z,-23132.09
2023-02-26T10:30:03.820Z,-23138.81
2023-02-26T10:32:10.690Z,-23129.53
2023-02-26T10:34:22.576Z,-23139.78
2023-02-26T10:36:29.127Z,-23131.78
2023-02-26T10:38:32.947Z,-23131.78
2023-02-26T10:40:40.582Z,-23126.66
2023-02-26T10:42:48.664Z,-23129.84
2023-02-26T10:45:01.090Z,-23128.41
2023-02-26T10:47:15.904Z,-23126.66
2023-02-26T10:49:40.939Z,-23131.78
2023-02-26T10:51:44.781Z,-23140.72
2023-02-26T10:53:51.865Z,-23142.81
2023-02-26T10:55:58.136Z,-23139.13
2023-02-26T10:58:07.784Z,-23141.69
2023-02-26T11:00:18.225Z,-23143.28
2023-02-26T11:02:34.857Z,-23144.25
2023-02-26T11:04:37.663Z,-23155.91
2023-02-26T11:06:44.120Z,-23157.34
2023-02-26T11:08:50.468Z,-23156.72
2023-02-26T11:10:55.409Z,-23157.69
2023-02-26T11:13:00.382Z,-23153.84
2023-02-26T11:15:05.546Z,-23163.09
2023-02-26T11:17:12.906Z,-23165.34
2023-02-26T11:19:17.200Z,-23170.78
2023-02-26T11:21:23.964Z,-23169.19
2023-02-26T11:23:28.253Z,-23163.09
2023-02-26T11:25:35.669Z,-23165.34
2023-02-26T11:27:39.545Z,-23168.53
2023-02-26T11:29:44.216Z,-23163.91
2023-02-26T11:31:51.880Z,-23155.44
2023-02-26T11:34:00.174Z,-23157.69
2023-02-26T11:36:07.274Z,-23159.28
2023-02-26T11:38:15.628Z,-23164.06
2023-02-26T11:40:24.732Z,-23157.03
2023-02-26T11:42:28.748Z,-23167.59
2023-02-26T11:44:37.502Z,-23159.13
2023-02-26T11:46:45.573Z,-23163.09
2023-02-26T11:48:51.653Z,-23168.38
2023-02-26T11:50:58.834Z,-23166.94
2023-02-26T11:53:07.758Z,-23162.16
2023-02-26T11:55:20.571Z,-23169.50
2023-02-26T11:57:26.499Z,-23169.81
2023-02-26T11:59:32.967Z,-23161.50
2023-02-26T12:01:37.726Z,-23173.66
2023-02-26T12:03:46.182Z,-23168.38
2023-02-26T12:05:50.557Z,-23169.81
2023-02-26T12:07:53.206Z,-23162.00
2023-02-26T12:09:55.884Z,-23164.38
2023-02-26T12:12:17.521Z,-23167.59
2023-02-26T12:14:48.999Z,-23165.66
2023-02-26T12:17:03.835Z,-23164.38
2023-02-26T12:19:14.610Z,-23167.44
2023-02-26T12:21:33.338Z,-23170.16
2023-02-26T12:23:56.481Z,-23168.88
2023-02-26T12:26:26.965Z,-23174.28
2023-02-26T12:28:58.470Z,-23178.94
2023-02-26T12:31:19.465Z,-23169.19
2023-02-26T12:33:36.106Z,-23166.78
2023-02-26T12:35:46.300Z,-23172.84
2023-02-26T12:38:01.506Z,-23165.03
2023-02-26T12:40:23.930Z,-23171.72
2023-02-26T12:42:40.095Z,-23159.91
2023-02-26T12:45:04.190Z,-23170.16
2023-02-26T12:47:27.489Z,-23162.31
2023-02-26T12:49:52.082Z,-23173.19
2023-02-26T12:52:18.295Z,-23176.22
2023-02-26T12:54:37.578Z,-23173.66
2023-02-26T12:57:00.283Z,-23179.41
2023-02-26T12:59:18.775Z,-23171.91
2023-02-26T13:01:38.158Z,-23174.94
2023-02-26T13:04:06.834Z,-23179.09
2023-02-26T13:06:30.310Z,-23171.72
2023-02-26T13:08:40.934Z,-23177.81
2023-02-26T13:10:59.572Z,-23179.72
2023-02-26T13:13:17.802Z,-23179.56
2023-02-26T13:15:49.252Z,-23179.41
2023-02-26T13:17:59.824Z,-23179.09
2023-02-26T13:20:05.008Z,-23179.72
2023-02-26T13:22:16.432Z,-23174.94
2023-02-26T13:24:25.729Z,-23177.00
2023-02-26T13:26:30.825Z,-23176.53
2023-02-26T13:28:40.691Z,-23174.28
2023-02-26T13:30:49.270Z,-23177.00
2023-02-26T13:32:55.188Z,-23176.53
2023-02-26T13:35:01.006Z,-23178.75
2023-02-26T13:37:05.289Z,-23182.75
2023-02-26T13:39:22.559Z,-23188.34
2023-02-26T13:41:38.276Z,-23189.47
2023-02-26T13:44:06.164Z,-23185.16
2023-02-26T13:46:30.970Z,-23188.34
2023-02-26T13:48:42.969Z,-23187.41
2023-02-26T13:50:58.547Z,-23206.06
2023-02-26T13:53:04.685Z,-23213.56
2023-02-26T13:55:07.948Z,-23201.94
2023-02-26T13:57:27.958Z,-23204.63
2023-02-26T13:59:37.598Z,-23205.13
2023-02-26T14:01:51.558Z,-23209.13
2023-02-26T14:04:09.979Z,-23208.31
2023-02-26T14:06:42.441Z,-23221.56
2023-02-26T14:08:50.285Z,-23212.00
2023-02-26T14:10:58.193Z,-23200.31
2023-02-26T14:13:12.911Z,-23200.50
2023-02-26T14:15:32.634Z,-23201.13
2023-02-26T14:17:50.027Z,-23198.09
2023-02-26T14:20:18.777Z,-23196.50
2023-02-26T14:22:23.647Z,-23190.59
2023-02-26T14:24:36.682Z,-23190.28
2023-02-26T14:26:39.902Z,-23192.50
2023-02-26T14:29:10.056Z,-23196.19
2023-02-26T14:31:22.272Z,-23196.97
2023-02-26T14:33:30.650Z,-23196.97
2023-02-26T14:35:36.042Z,-23196.03
2023-02-26T14:37:42.482Z,-23197.94
2023-02-26T14:39:49.593Z,-23203.69
2023-02-26T14:41:57.863Z,-23209.59
2023-02-26T14:44:06.517Z,-23211.34
2023-02-26T14:46:11.044Z,-23205.59
2023-02-26T14:48:16.405Z,-23212.63
2023-02-26T14:50:22.266Z,-23210.88
2023-02-26T14:52:51.724Z,-23196.66
2023-02-26T14:55:09.599Z,-23202.72
2023-02-26T14:57:20.630Z,-23208.94
2023-02-26T14:59:39.637Z,-23206.88
2023-02-26T15:01:49.249Z,-23198.72
2023-02-26T15:04:14.985Z,-23196.66
2023-02-26T15:06:32.533Z,-23196.66
2023-02-26T15:08:53.709Z,-23201.13
2023-02-26T15:11:11.094Z,-23205.59
2023-02-26T15:13:33.086Z,-23201.44
2023-02-26T15:15:49.048Z,-23196.66
2023-02-26T15:18:19.637Z,-23200.16
2023-02-26T15:20:32.118Z,-23194.75
2023-02-26T15:22:49.946Z,-23192.50
2023-02-26T15:24:53.462Z,-23196.34
2023-02-26T15:27:00.481Z,-23196.97
2023-02-26T15:29:05.694Z,-23191.53
2023-02-26T15:31:13.778Z,-23187.06
2023-02-26T15:33:20.348Z,-23191.22
2023-02-26T15:35:24.064Z,-23189.47
2023-02-26T15:37:30.058Z,-23188.34
2023-02-26T15:39:32.759Z,-23191.88
2023-02-26T15:41:35.669Z,-23196.81
2023-02-26T15:43:38.529Z,-23195.06
2023-02-26T15:45:44.783Z,-23192.81
2023-02-26T15:47:53.054Z,-23194.41
2023-02-26T15:49:56.568Z,-23191.22
2023-02-26T15:52:01.605Z,-23188.66
2023-02-26T15:54:06.183Z,-23191.22
2023-02-26T15:56:12.556Z,-23187.41
2023-02-26T15:58:21.787Z,-23187.06
2023-02-26T16:00:25.692Z,-23184.84
2023-02-26T16:02:31.797Z,-23183.88
2023-02-26T16:04:38.253Z,-23186.44
2023-02-26T16:06:43.154Z,-23187.06
2023-02-26T16:08:45.891Z,-23189.00
2023-02-26T16:10:48.855Z,-23185.31
2023-02-26T16:12:54.992Z,-23184.03
2023-02-26T16:15:01.786Z,-23183.56
2023-02-26T16:17:06.229Z,-23184.53
2023-02-26T16:19:14.679Z,-23184.53
2023-02-26T16:21:28.552Z,-23181.66
2023-02-26T16:23:41.789Z,-23180.84
2023-02-26T16:25:52.848Z,-23177.31
2023-02-26T16:28:00.731Z,-23175.56
2023-02-26T16:30:06.077Z,-23174.63
2023-02-26T16:32:12.138Z,-23174.63
2023-02-26T16:34:27.034Z,-23173.34
2023-02-26T16:36:34.375Z,-23175.72
2023-02-26T16:38:46.073Z,-23175.56
2023-02-26T16:40:58.399Z,-23173.66
2023-02-26T16:43:03.674Z,-23172.38
2023-02-26T16:45:19.851Z,-23173.66
2023-02-26T16:47:32.046Z,-23173.19
2023-02-26T16:49:37.452Z,-23176.69
2023-02-26T16:51:43.316Z,-23173.66
2023-02-26T16:53:49.566Z,-23171.41
2023-02-26T16:55:54.752Z,-23170.94
2023-02-26T16:57:57.824Z,-23174.94
2023-02-26T17:00:04.551Z,-23172.69
2023-02-26T17:02:14.358Z,-23172.06
2023-02-26T17:04:19.161Z,-23171.59
2023-02-26T17:06:23.487Z,-23170.16
2023-02-26T17:08:32.683Z,-23171.09
2023-02-26T17:10:40.971Z,-23170.47
2023-02-26T17:12:46.464Z,-23169.97
2023-02-26T17:14:56.669Z,-23169.66
2023-02-26T17:16:59.688Z,-23166.94
2023-02-26T17:19:02.676Z,-23167.91
2023-02-26T17:21:06.698Z,-23167.09
2023-02-26T17:23:10.323Z,-23165.50
2023-02-26T17:25:19.421Z,-23164.56
2023-02-26T17:27:28.175Z,-23163.75
2023-02-26T17:29:34.589Z,-23164.22
2023-02-26T17:31:37.972Z,-23164.06
2023-02-26T17:33:43.311Z,-23163.28
2023-02-26T17:35:46.221Z,-23163.75
2023-02-26T17:37:49.049Z,-23164.06
2023-02-26T17:39:51.978Z,-23162.47
2023-02-26T17:41:56.184Z,-23162.00
2023-02-26T17:43:58.878Z,-23162.31
2023-02-26T17:46:01.778Z,-23163.28
2023-02-26T17:48:05.822Z,-23159.91
2023-02-26T17:50:21.635Z,-23161.03
2023-02-26T17:52:24.373Z,-23157.69
2023-02-26T17:54:26.960Z,-23158.63
2023-02-26T17:56:31.600Z,-23157.03
2023-02-26T17:58:39.475Z,-23156.72
2023-02-26T18:00:42.968Z,-23156.41
2023-02-26T18:02:45.787Z,-23154.16
2023-02-26T18:04:48.457Z,-23155.13
2023-02-26T18:06:51.343Z,-23153.19
2023-02-26T18:08:54.130Z,-23151.59
2023-02-26T18:10:57.849Z,-23151.44
2023-02-26T18:13:00.606Z,-23153.19
2023-02-26T18:15:05.824Z,-23150.31
2023-02-26T18:17:11.829Z,-23148.72
2023-02-26T18:19:15.455Z,-23147.59
2023-02-26T18:21:20.263Z,-23147.44
2023-02-26T18:23:23.026Z,-23148.56
2023-02-26T18:25:27.681Z,-23147.13
2023-02-26T18:27:30.887Z,-23146.81
2023-02-26T18:29:33.634Z,-23146.97
2023-02-26T18:31:38.127Z,-23147.13
2023-02-26T18:33:43.903Z,-23147.75
2023-02-26T18:35:50.069Z,-23148.72
2023-02-26T18:37:53.600Z,-23149.38
2023-02-26T18:39:56.762Z,-23146.16
2023-02-26T18:41:59.429Z,-23147.59
2023-02-26T18:44:02.174Z,-23148.09
2023-02-26T18:46:05.237Z,-23147.75
2023-02-26T18:48:11.774Z,-23147.94
2023-02-26T18:50:15.944Z,-23144.72
2023-02-26T18:52:19.310Z,-23148.88
2023-02-26T18:54:22.005Z,-23146.16
2023-02-26T18:56:24.665Z,-23143.59
2023-02-26T18:58:27.415Z,-23142.50
2023-02-26T19:00:30.192Z,-23140.72
2023-02-26T19:02:34.201Z,-23140.09
2023-02-26T19:04:38.777Z,-23140.91
2023-02-26T19:06:41.574Z,-23138.00
2023-02-26T19:08:44.226Z,-23139.78
2023-02-26T19:10:46.975Z,-23136.56
2023-02-26T19:12:51.040Z,-23138.50
2023-02-26T19:14:53.714Z,-23136.88
2023-02-26T19:16:56.404Z,-23134.97
2023-02-26T19:18:59.879Z,-23136.88
2023-02-26T19:21:05.855Z,-23136.41
2023-02-26T19:23:09.187Z,-23135.63
2023-02-26T19:25:12.022Z,-23134.81
2023-02-26T19:27:15.454Z,-23136.41
2023-02-26T19:29:20.306Z,-23132.72
2023-02-26T19:31:23.017Z,-23131.13
2023-02-26T19:33:25.989Z,-23132.41
2023-02-26T19:35:29.619Z,-23132.72
2023-02-26T19:37:33.788Z,-23135.13
2023-02-26T19:39:36.498Z,-23135.63
2023-02-26T19:41:39.115Z,-23135.28
2023-02-26T19:43:41.800Z,-23131.13
2023-02-26T19:45:44.489Z,-23132.41
2023-02-26T19:47:47.430Z,-23133.53
2023-02-26T19:49:50.181Z,-23133.06
2023-02-26T19:51:53.091Z,-23132.72
2023-02-26T19:53:57.106Z,-23132.91
2023-02-26T19:55:59.745Z,-23133.84
2023-02-26T19:58:02.452Z,-23136.72
2023-02-26T20:00:06.904Z,-23134.34
2023-02-26T20:02:10.430Z,-23135.78
2023-02-26T20:04:13.827Z,-23134.03
2023-02-26T20:06:16.608Z,-23131.78
2023-02-26T20:08:19.918Z,-23134.16
2023-02-26T20:10:24.417Z,-23136.56
2023-02-26T20:12:27.104Z,-23132.91
2023-02-26T20:14:29.743Z,-23134.03
2023-02-26T20:16:35.126Z,-23132.72
2023-02-26T20:18:38.372Z,-23129.53
2023-02-26T20:20:43.785Z,-23128.56
2023-02-26T20:22:46.481Z,-23126.03
2023-02-26T20:24:49.212Z,-23125.06
2023-02-26T20:26:53.346Z,-23124.09
2023-02-26T20:28:55.966Z,-23125.69
2023-02-26T20:30:59.303Z,-23124.91
2023-02-26T20:33:02.107Z,-23123.13
2023-02-26T20:35:05.239Z,-23123.47
2023-02-26T20:37:07.959Z,-23122.50
2023-02-26T20:39:10.659Z,-23124.09
2023-02-26T20:41:13.305Z,-23120.91
2023-02-26T20:43:17.372Z,-23122.50
2023-02-26T20:45:20.146Z,-23119.13
2023-02-26T20:47:22.766Z,-23119.31
2023-02-26T20:49:25.597Z,-23117.88
2023-02-26T20:51:28.664Z,-23119.31
2023-02-26T20:53:31.495Z,-23119.63
2023-02-26T20:55:34.260Z,-23119.63
2023-02-26T20:57:36.960Z,-23118.50
2023-02-26T20:59:40.968Z,-23118.03
2023-02-26T21:01:43.682Z,-23119.31
2023-02-26T21:03:46.376Z,-23117.88
2023-02-26T21:05:49.035Z,-23117.69
2023-02-26T21:07:51.712Z,-23116.59
2023-02-26T21:09:55.454Z,-23114.34
2023-02-26T21:11:58.039Z,-23117.69
2023-02-26T21:14:01.883Z,-23114.81
2023-02-26T21:16:06.421Z,-23115.94
2023-02-26T21:18:09.173Z,-23114.97
2023-02-26T21:20:17.835Z,-23112.91
2023-02-26T21:22:21.405Z,-23112.44
2023-02-26T21:24:25.148Z,-23113.53
2023-02-26T21:26:27.854Z,-23114.66
2023-02-26T21:28:30.625Z,-23112.56
2023-02-26T21:30:33.263Z,-23115.94
2023-02-26T21:32:37.531Z,-23113.22
2023-02-26T21:34:40.156Z,-23115.78
2023-02-26T21:36:45.301Z,-23116.75
2023-02-26T21:38:47.977Z,-23115.47
2023-02-26T21:40:50.735Z,-23115.47
2023-02-26T21:42:53.352Z,-23115.94
2023-02-26T21:44:56.157Z,-23116.75
2023-02-26T21:46:59.324Z,-23116.41
2023-02-26T21:49:03.303Z,-23115.47
2023-02-26T21:51:06.670Z,-23116.25
2023-02-26T21:53:09.400Z,-23116.41
2023-02-26T21:55:12.452Z,-23118.81
2023-02-26T21:57:15.109Z,-23118.03
2023-02-26T21:59:17.929Z,-23120.91
2023-02-26T22:01:20.653Z,-23120.41
2023-02-26T22:03:23.244Z,-23121.84
2023-02-26T22:05:27.439Z,-23116.41
2023-02-26T22:07:30.229Z,-23114.34
2023-02-26T22:09:32.851Z,-23115.78
2023-02-26T22:11:35.666Z,-23111.78
2023-02-26T22:13:38.312Z,-23111.63
2023-02-26T22:15:41.297Z,-23109.38
2023-02-26T22:17:43.856Z,-23106.81
2023-02-26T22:19:46.531Z,-23108.91
2023-02-26T22:21:50.520Z,-23109.69
2023-02-26T22:23:53.266Z,-23108.09
2023-02-26T22:25:55.882Z,-23107.78
2023-02-26T22:27:58.603Z,-23107.47
2023-02-26T22:30:01.188Z,-23106.97
2023-02-26T22:32:03.952Z,-23104.91
2023-02-26T22:34:06.737Z,-23105.88
2023-02-26T22:36:09.501Z,-23104.91
2023-02-26T22:38:13.491Z,-23104.25
2023-02-26T22:40:16.584Z,-23103.63
2023-02-26T22:42:19.528Z,-23102.66
2023-02-26T22:44:22.310Z,-23100.91
2023-02-26T22:46:28.265Z,-23102.34
2023-02-26T22:48:31.028Z,-23098.50
2023-02-26T22:50:34.342Z,-23099.16
2023-02-26T22:52:37.237Z,-23097.84
2023-02-26T22:54:41.779Z,-23097.53
2023-02-26T22:56:44.499Z,-23097.22
2023-02-26T22:58:47.139Z,-23098.03
2023-02-26T23:00:49.825Z,-23098.81
2023-02-26T23:02:52.559Z,-23098.66
2023-02-26T23:04:55.311Z,-23098.50
2023-02-26T23:06:58.042Z,-23095.94
2023-02-26T23:09:00.715Z,-23096.09
2023-02-26T23:11:05.578Z,-23095.63
2023-02-26T23:13:08.476Z,-23095.47
2023-02-26T23:15:12.380Z,-23094.19
2023-02-26T23:17:15.055Z,-23094.66
2023-02-26T23:19:17.804Z,-23095.47
2023-02-26T23:21:20.853Z,-23095.13
2023-02-26T23:23:23.791Z,-23093.69
2023-02-26T23:25:26.823Z,-23094.03
2023-02-26T23:27:30.821Z,-23093.53
2023-02-26T23:29:33.528Z,-23093.22
2023-02-26T23:31:36.274Z,-23092.25
2023-02-26T23:33:38.971Z,-23093.06
2023-02-26T23:35:41.676Z,-23092.41
2023-02-26T23:37:44.370Z,-23092.91
2023-02-26T23:39:48.937Z,-23091.47
2023-02-26T23:41:51.647Z,-23090.19
2023-02-26T23:43:55.650Z,-23089.38
2023-02-26T23:45:58.289Z,-23090.97
2023-02-26T23:48:00.943Z,-23088.56
2023-02-26T23:50:03.960Z,-23090.50
2023-02-26T23:52:06.693Z,-23089.38
2023-02-26T23:54:09.370Z,-23091.78
2023-02-26T23:56:12.070Z,-23086.66
2023-02-26T23:58:14.746Z,-23087.94
